sensor_id;sensor_type;location;lat;lon;timestamp;pressure;altitude;pressure_sealevel;temperature;humidity
25232;BME280;13176;51.140;6.290;2023-12-07T00:02:20;101064.16;;;3.47;89.58
25232;BME280;13176;51.140;6.290;2023-12-07T00:04:47;101300.91;;;4.83;89.26
25232;BME280;13176;51.140;6.290;2023-12-07T00:07:14;101267.63;;;4.55;88.95
25232;BME280;13176;51.140;6.290;2023-12-07T00:09:40;101255.38;;;4.45;89.33
25232;BME280;13176;51.140;6.290;2023-12-07T00:12:07;101281.53;;;4.60;89.16
25232;BME280;13176;51.140;6.290;2023-12-07T00:14:34;101266.97;;;4.65;89.97
25232;BME280;13176;51.140;6.290;2023-12-07T00:17:03;101259.31;;;4.69;89.25
25232;BME280;13176;51.140;6.290;2023-12-07T00:19:29;101264.53;;;4.71;89.79
25232;BME280;13176;51.140;6.290;2023-12-07T00:21:56;101271.50;;;4.78;89.47
25232;BME280;13176;51.140;6.290;2023-12-07T00:24:23;101133.81;;;3.90;88.12
25232;BME280;13176;51.140;6.290;2023-12-07T00:26:49;101271.13;;;4.57;87.93
25232;BME280;13176;51.140;6.290;2023-12-07T00:29:16;101277.66;;;4.40;88.98
25232;BME280;13176;51.140;6.290;2023-12-07T00:31:42;101267.97;;;4.29;89.44
25232;BME280;13176;51.140;6.290;2023-12-07T00:34:10;101263.69;;;4.29;89.94
25232;BME280;13176;51.140;6.290;2023-12-07T00:36:36;101209.78;;;4.04;89.70
25232;BME280;13176;51.140;6.290;2023-12-07T00:39:03;101282.22;;;4.51;89.12
25232;BME280;13176;51.140;6.290;2023-12-07T00:41:30;101238.75;;;4.31;89.19
25232;BME280;13176;51.140;6.290;2023-12-07T00:43:56;101152.47;;;3.77;88.58
25232;BME280;13176;51.140;6.290;2023-12-07T00:46:23;101211.72;;;4.14;88.68
25232;BME280;13176;51.140;6.290;2023-12-07T00:48:49;101257.00;;;4.40;88.43
25232;BME280;13176;51.140;6.290;2023-12-07T00:51:16;101155.94;;;3.79;88.42
25232;BME280;13176;51.140;6.290;2023-12-07T00:53:43;101266.41;;;4.37;89.06
25232;BME280;13176;51.140;6.290;2023-12-07T00:56:09;101272.50;;;4.40;88.86
25232;BME280;13176;51.140;6.290;2023-12-07T00:58:36;101282.00;;;4.41;89.24
25232;BME280;13176;51.140;6.290;2023-12-07T01:01:04;101224.72;;;3.77;89.46
25232;BME280;13176;51.140;6.290;2023-12-07T01:03:31;101071.81;;;3.05;89.89
25232;BME280;13176;51.140;6.290;2023-12-07T01:06:00;101213.63;;;3.83;89.66
25232;BME280;13176;51.140;6.290;2023-12-07T01:08:26;101198.63;;;3.65;89.90
25232;BME280;13176;51.140;6.290;2023-12-07T01:10:53;101259.50;;;3.94;89.62
25232;BME280;13176;51.140;6.290;2023-12-07T01:13:19;101205.66;;;3.72;89.88
25232;BME280;13176;51.140;6.290;2023-12-07T01:15:46;101199.03;;;3.83;89.17
25232;BME280;13176;51.140;6.290;2023-12-07T01:18:12;101198.84;;;3.74;88.66
25232;BME280;13176;51.140;6.290;2023-12-07T01:20:39;101135.16;;;3.32;87.81
25232;BME280;13176;51.140;6.290;2023-12-07T01:23:05;101188.84;;;3.51;88.75
25232;BME280;13176;51.140;6.290;2023-12-07T01:25:31;101163.44;;;3.28;88.96
25232;BME280;13176;51.140;6.290;2023-12-07T01:27:58;101187.88;;;3.44;89.58
25232;BME280;13176;51.140;6.290;2023-12-07T01:30:25;101212.13;;;3.52;89.46
25232;BME280;13176;51.140;6.290;2023-12-07T01:32:52;101151.59;;;3.37;89.39
25232;BME280;13176;51.140;6.290;2023-12-07T01:35:18;101121.75;;;3.10;89.53
25232;BME280;13176;51.140;6.290;2023-12-07T01:37:45;101167.69;;;3.26;89.37
25232;BME280;13176;51.140;6.290;2023-12-07T01:40:12;101109.41;;;2.97;89.15
25232;BME280;13176;51.140;6.290;2023-12-07T01:42:38;101244.59;;;3.81;89.41
25232;BME280;13176;51.140;6.290;2023-12-07T01:45:06;101255.81;;;3.83;89.64
25232;BME280;13176;51.140;6.290;2023-12-07T01:47:35;101228.97;;;3.75;88.90
25232;BME280;13176;51.140;6.290;2023-12-07T01:50:02;101173.66;;;3.61;88.95
25232;BME280;13176;51.140;6.290;2023-12-07T01:52:32;101268.72;;;4.23;88.94
25232;BME280;13176;51.140;6.290;2023-12-07T01:55:01;101167.31;;;3.47;87.97
25232;BME280;13176;51.140;6.290;2023-12-07T01:57:27;101195.03;;;3.57;88.90
25232;BME280;13176;51.140;6.290;2023-12-07T01:59:54;101267.47;;;4.06;89.18
25232;BME280;13176;51.140;6.290;2023-12-07T02:02:20;101256.81;;;3.90;89.17
25232;BME280;13176;51.140;6.290;2023-12-07T02:04:47;101273.63;;;4.11;88.89
25232;BME280;13176;51.140;6.290;2023-12-07T02:07:14;101333.97;;;4.54;89.25
25232;BME280;13176;51.140;6.290;2023-12-07T02:09:41;101261.69;;;4.16;89.53
25232;BME280;13176;51.140;6.290;2023-12-07T02:12:08;101314.66;;;4.39;89.22
25232;BME280;13176;51.140;6.290;2023-12-07T02:14:34;101174.34;;;3.54;88.71
25232;BME280;13176;51.140;6.290;2023-12-07T02:17:13;101102.47;;;3.31;89.52
25232;BME280;13176;51.140;6.290;2023-12-07T02:20:24;101325.44;;;4.60;90.07
25232;BME280;13176;51.140;6.290;2023-12-07T02:22:37;101194.16;;;3.95;90.97
25232;BME280;13176;51.140;6.290;2023-12-07T02:25:07;101331.19;;;4.90;91.75
25232;BME280;13176;51.140;6.290;2023-12-07T02:27:35;101313.63;;;4.72;93.06
25232;BME280;13176;51.140;6.290;2023-12-07T02:30:02;101330.59;;;5.03;92.85
25232;BME280;13176;51.140;6.290;2023-12-07T02:32:28;101261.03;;;4.69;92.72
25232;BME280;13176;51.140;6.290;2023-12-07T02:34:55;101335.91;;;5.12;91.91
25232;BME280;13176;51.140;6.290;2023-12-07T02:37:24;101248.13;;;4.69;92.18
25232;BME280;13176;51.140;6.290;2023-12-07T02:39:55;101261.34;;;4.87;93.64
25232;BME280;13176;51.140;6.290;2023-12-07T02:42:23;101280.41;;;4.92;93.72
25232;BME280;13176;51.140;6.290;2023-12-07T02:44:51;101229.72;;;4.54;94.84
25232;BME280;13176;51.140;6.290;2023-12-07T02:47:18;101276.53;;;4.69;96.32
25232;BME280;13176;51.140;6.290;2023-12-07T02:49:44;101221.19;;;4.58;95.22
25232;BME280;13176;51.140;6.290;2023-12-07T02:52:11;101308.84;;;4.92;96.54
25232;BME280;13176;51.140;6.290;2023-12-07T02:54:37;101322.19;;;5.16;95.77
25232;BME280;13176;51.140;6.290;2023-12-07T02:57:04;101276.84;;;4.87;95.53
25232;BME280;13176;51.140;6.290;2023-12-07T02:59:30;101292.78;;;5.11;95.48
25232;BME280;13176;51.140;6.290;2023-12-07T03:01:57;101300.91;;;5.30;94.30
25232;BME280;13176;51.140;6.290;2023-12-07T03:04:23;101308.94;;;5.45;94.67
25232;BME280;13176;51.140;6.290;2023-12-07T03:06:50;101253.16;;;5.12;93.61
25232;BME280;13176;51.140;6.290;2023-12-07T03:09:16;101265.31;;;5.16;93.56
25232;BME280;13176;51.140;6.290;2023-12-07T03:11:42;101293.34;;;5.41;93.62
25232;BME280;13176;51.140;6.290;2023-12-07T03:14:09;101279.88;;;5.11;94.82
25232;BME280;13176;51.140;6.290;2023-12-07T03:16:35;101242.09;;;4.70;95.63
25232;BME280;13176;51.140;6.290;2023-12-07T03:19:02;101301.78;;;5.32;95.08
25232;BME280;13176;51.140;6.290;2023-12-07T03:21:29;101227.81;;;4.90;94.97
25232;BME280;13176;51.140;6.290;2023-12-07T03:23:55;101301.84;;;5.34;94.93
25232;BME280;13176;51.140;6.290;2023-12-07T03:26:22;101290.25;;;5.12;96.49
25232;BME280;13176;51.140;6.290;2023-12-07T03:28:48;101294.75;;;5.24;96.27
25232;BME280;13176;51.140;6.290;2023-12-07T03:31:14;101290.25;;;5.12;96.66
25232;BME280;13176;51.140;6.290;2023-12-07T03:33:44;101231.00;;;4.75;96.26
25232;BME280;13176;51.140;6.290;2023-12-07T03:36:11;101314.03;;;5.41;95.50
25232;BME280;13176;51.140;6.290;2023-12-07T03:38:38;101242.75;;;5.06;94.83
25232;BME280;13176;51.140;6.290;2023-12-07T03:41:04;101237.78;;;4.69;96.82
25232;BME280;13176;51.140;6.290;2023-12-07T03:43:30;101315.84;;;5.48;95.84
25232;BME280;13176;51.140;6.290;2023-12-07T03:45:57;101295.09;;;5.42;95.30
25232;BME280;13176;51.140;6.290;2023-12-07T03:48:24;101292.50;;;5.43;94.91
25232;BME280;13176;51.140;6.290;2023-12-07T03:50:50;101251.44;;;5.11;96.05
25232;BME280;13176;51.140;6.290;2023-12-07T03:53:17;101277.38;;;5.17;96.30
25232;BME280;13176;51.140;6.290;2023-12-07T03:55:43;101300.03;;;5.30;96.76
25232;BME280;13176;51.140;6.290;2023-12-07T03:58:10;101292.97;;;5.20;97.51
25232;BME280;13176;51.140;6.290;2023-12-07T04:00:37;101270.19;;;4.98;96.66
25232;BME280;13176;51.140;6.290;2023-12-07T04:03:03;101222.41;;;4.78;97.55
25232;BME280;13176;51.140;6.290;2023-12-07T04:05:30;101282.44;;;5.09;97.65
25232;BME280;13176;51.140;6.290;2023-12-07T04:07:57;101320.16;;;5.46;97.00
25232;BME280;13176;51.140;6.290;2023-12-07T04:10:24;101247.13;;;5.10;96.10
25232;BME280;13176;51.140;6.290;2023-12-07T04:12:50;101298.63;;;5.50;95.35
25232;BME280;13176;51.140;6.290;2023-12-07T04:15:19;101291.81;;;5.55;95.29
25232;BME280;13176;51.140;6.290;2023-12-07T04:17:46;101227.41;;;5.18;95.41
25232;BME280;13176;51.140;6.290;2023-12-07T04:20:13;101310.09;;;5.62;94.81
25232;BME280;13176;51.140;6.290;2023-12-07T04:22:39;101318.06;;;5.75;94.84
25232;BME280;13176;51.140;6.290;2023-12-07T04:25:06;101274.44;;;5.45;95.61
25232;BME280;13176;51.140;6.290;2023-12-07T04:27:33;101293.22;;;5.35;95.68
25232;BME280;13176;51.140;6.290;2023-12-07T04:30:00;101243.72;;;4.65;98.31
25232;BME280;13176;51.140;6.290;2023-12-07T04:32:26;101323.38;;;5.34;96.70
25232;BME280;13176;51.140;6.290;2023-12-07T04:34:53;101291.34;;;5.25;96.71
25232;BME280;13176;51.140;6.290;2023-12-07T04:37:19;101263.72;;;5.24;95.56
25232;BME280;13176;51.140;6.290;2023-12-07T04:39:46;101293.13;;;5.29;96.22
25232;BME280;13176;51.140;6.290;2023-12-07T04:42:12;101289.13;;;4.97;97.60
25232;BME280;13176;51.140;6.290;2023-12-07T04:44:39;101355.50;;;5.47;96.93
25232;BME280;13176;51.140;6.290;2023-12-07T04:47:05;101287.53;;;5.05;96.72
25232;BME280;13176;51.140;6.290;2023-12-07T04:49:32;101320.75;;;5.31;96.75
25232;BME280;13176;51.140;6.290;2023-12-07T04:51:58;101315.72;;;5.39;96.07
25232;BME280;13176;51.140;6.290;2023-12-07T04:54:25;101345.13;;;5.44;96.46
25232;BME280;13176;51.140;6.290;2023-12-07T04:56:52;101324.00;;;5.20;96.84
25232;BME280;13176;51.140;6.290;2023-12-07T04:59:19;101346.44;;;5.21;96.83
25232;BME280;13176;51.140;6.290;2023-12-07T05:01:47;101346.44;;;5.21;97.09
25232;BME280;13176;51.140;6.290;2023-12-07T05:04:13;101376.47;;;5.61;96.46
25232;BME280;13176;51.140;6.290;2023-12-07T05:06:40;101325.28;;;5.44;96.37
25232;BME280;13176;51.140;6.290;2023-12-07T05:09:06;101340.16;;;5.56;95.24
25232;BME280;13176;51.140;6.290;2023-12-07T05:11:35;101285.34;;;5.27;95.09
25232;BME280;13176;51.140;6.290;2023-12-07T05:14:02;101315.84;;;5.48;94.86
25232;BME280;13176;51.140;6.290;2023-12-07T05:16:29;101312.28;;;5.40;95.16
25232;BME280;13176;51.140;6.290;2023-12-07T05:18:56;101288.63;;;5.19;95.79
25232;BME280;13176;51.140;6.290;2023-12-07T05:21:22;101317.53;;;5.43;95.15
25232;BME280;13176;51.140;6.290;2023-12-07T05:23:49;101355.00;;;5.67;95.93
25232;BME280;13176;51.140;6.290;2023-12-07T05:26:15;101342.84;;;5.61;95.17
25232;BME280;13176;51.140;6.290;2023-12-07T05:28:42;101307.41;;;5.57;94.62
25232;BME280;13176;51.140;6.290;2023-12-07T05:31:09;101316.94;;;5.60;95.13
25232;BME280;13176;51.140;6.290;2023-12-07T05:33:35;101206.28;;;4.91;96.26
25232;BME280;13176;51.140;6.290;2023-12-07T05:36:02;101314.25;;;5.56;95.52
25232;BME280;13176;51.140;6.290;2023-12-07T05:38:30;101274.22;;;5.33;95.10
25232;BME280;13176;51.140;6.290;2023-12-07T05:40:56;101342.09;;;5.68;95.75
25232;BME280;13176;51.140;6.290;2023-12-07T05:43:22;101286.47;;;5.43;95.24
25232;BME280;13176;51.140;6.290;2023-12-07T05:45:49;101323.03;;;5.63;95.58
25232;BME280;13176;51.140;6.290;2023-12-07T05:48:15;101327.31;;;5.61;96.01
25232;BME280;13176;51.140;6.290;2023-12-07T05:50:42;101317.91;;;5.66;95.91
25232;BME280;13176;51.140;6.290;2023-12-07T05:53:08;101331.25;;;5.89;95.10
25232;BME280;13176;51.140;6.290;2023-12-07T05:55:35;101333.78;;;5.87;94.75
25232;BME280;13176;51.140;6.290;2023-12-07T05:58:01;101304.16;;;5.70;95.02
25232;BME280;13176;51.140;6.290;2023-12-07T06:00:30;101293.63;;;5.58;94.98
25232;BME280;13176;51.140;6.290;2023-12-07T06:02:56;101151.00;;;4.83;94.34
25232;BME280;13176;51.140;6.290;2023-12-07T06:05:23;101285.09;;;5.65;94.70
25232;BME280;13176;51.140;6.290;2023-12-07T06:07:55;101291.97;;;5.63;94.48
25232;BME280;13176;51.140;6.290;2023-12-07T06:10:23;101120.59;;;4.67;93.86
25232;BME280;13176;51.140;6.290;2023-12-07T06:12:52;101283.22;;;5.56;93.97
25232;BME280;13176;51.140;6.290;2023-12-07T06:15:21;101356.38;;;5.97;93.87
25232;BME280;13176;51.140;6.290;2023-12-07T06:17:48;101296.47;;;5.75;94.17
25232;BME280;13176;51.140;6.290;2023-12-07T06:20:15;101285.94;;;5.63;94.02
25232;BME280;13176;51.140;6.290;2023-12-07T06:22:41;101161.69;;;5.04;93.85
25232;BME280;13176;51.140;6.290;2023-12-07T06:25:08;101100.56;;;4.54;93.70
25232;BME280;13176;51.140;6.290;2023-12-07T06:27:35;101265.78;;;5.43;94.73
25232;BME280;13176;51.140;6.290;2023-12-07T06:30:02;101240.28;;;5.15;94.59
25232;BME280;13176;51.140;6.290;2023-12-07T06:32:32;101293.72;;;5.64;93.70
25232;BME280;13176;51.140;6.290;2023-12-07T06:34:58;101320.53;;;5.69;93.89
25232;BME280;13176;51.140;6.290;2023-12-07T06:37:25;101252.84;;;5.44;93.22
25232;BME280;13176;51.140;6.290;2023-12-07T06:39:52;101306.66;;;5.63;93.13
25232;BME280;13176;51.140;6.290;2023-12-07T06:42:18;101302.44;;;5.69;93.11
25232;BME280;13176;51.140;6.290;2023-12-07T06:44:48;101312.16;;;5.82;93.06
25232;BME280;13176;51.140;6.290;2023-12-07T06:47:15;101312.81;;;5.72;92.71
25232;BME280;13176;51.140;6.290;2023-12-07T06:49:42;101258.31;;;5.62;92.71
25232;BME280;13176;51.140;6.290;2023-12-07T06:52:18;101271.28;;;5.63;92.19
25232;BME280;13176;51.140;6.290;2023-12-07T06:54:45;101237.28;;;5.41;91.76
25232;BME280;13176;51.140;6.290;2023-12-07T06:57:11;101149.25;;;4.82;91.80
25232;BME280;13176;51.140;6.290;2023-12-07T06:59:38;101287.78;;;5.73;92.06
25232;BME280;13176;51.140;6.290;2023-12-07T07:02:04;101279.09;;;5.68;91.11
25232;BME280;13176;51.140;6.290;2023-12-07T07:04:31;101307.69;;;5.75;90.44
25232;BME280;13176;51.140;6.290;2023-12-07T07:06:58;101223.03;;;5.12;89.99
25232;BME280;13176;51.140;6.290;2023-12-07T07:09:25;101296.81;;;5.43;91.08
25232;BME280;13176;51.140;6.290;2023-12-07T07:11:51;101265.91;;;5.52;90.57
25232;BME280;13176;51.140;6.290;2023-12-07T07:14:19;101284.09;;;5.56;90.83
25232;BME280;13176;51.140;6.290;2023-12-07T07:16:45;101296.88;;;5.46;91.19
25232;BME280;13176;51.140;6.290;2023-12-07T07:19:13;101203.59;;;4.83;90.53
25232;BME280;13176;51.140;6.290;2023-12-07T07:21:40;101175.09;;;4.82;90.08
25232;BME280;13176;51.140;6.290;2023-12-07T07:24:06;101209.66;;;4.87;90.33
25232;BME280;13176;51.140;6.290;2023-12-07T07:26:35;101286.16;;;5.25;91.06
25232;BME280;13176;51.140;6.290;2023-12-07T07:29:01;101199.44;;;4.93;90.52
25232;BME280;13176;51.140;6.290;2023-12-07T07:31:29;101293.41;;;5.44;90.40
25232;BME280;13176;51.140;6.290;2023-12-07T07:33:56;101308.03;;;5.43;90.59
25232;BME280;13176;51.140;6.290;2023-12-07T07:36:27;101267.00;;;5.14;91.00
25232;BME280;13176;51.140;6.290;2023-12-07T07:38:53;101267.03;;;5.17;89.98
25232;BME280;13176;51.140;6.290;2023-12-07T07:41:20;101154.28;;;4.26;90.88
25232;BME280;13176;51.140;6.290;2023-12-07T07:43:46;101304.81;;;5.06;91.54
25232;BME280;13176;51.140;6.290;2023-12-07T07:46:14;101310.88;;;5.09;91.38
25232;BME280;13176;51.140;6.290;2023-12-07T07:48:41;101292.47;;;4.93;90.92
25232;BME280;13176;51.140;6.290;2023-12-07T07:51:07;101317.81;;;5.12;91.97
25232;BME280;13176;51.140;6.290;2023-12-07T07:53:34;101265.91;;;5.01;91.11
25232;BME280;13176;51.140;6.290;2023-12-07T07:56:01;101250.16;;;4.86;90.97
25232;BME280;13176;51.140;6.290;2023-12-07T07:58:29;101284.06;;;5.03;91.29
25232;BME280;13176;51.140;6.290;2023-12-07T08:00:55;101296.03;;;4.98;90.81
25232;BME280;13176;51.140;6.290;2023-12-07T08:03:22;101302.81;;;4.93;91.33
25232;BME280;13176;51.140;6.290;2023-12-07T08:05:49;101309.09;;;5.05;92.14
25232;BME280;13176;51.140;6.290;2023-12-07T08:08:16;101183.94;;;4.46;92.31
25232;BME280;13176;51.140;6.290;2023-12-07T08:10:42;101275.50;;;5.07;92.45
25232;BME280;13176;51.140;6.290;2023-12-07T08:13:21;101236.59;;;4.99;92.45
25232;BME280;13176;51.140;6.290;2023-12-07T08:15:48;101300.94;;;5.33;91.87
25232;BME280;13176;51.140;6.290;2023-12-07T08:18:15;101192.16;;;4.71;91.32
25232;BME280;13176;51.140;6.290;2023-12-07T08:20:42;101304.44;;;5.34;92.30
25232;BME280;13176;51.140;6.290;2023-12-07T08:23:09;101261.97;;;5.23;92.40
25232;BME280;13176;51.140;6.290;2023-12-07T08:25:38;101312.97;;;5.78;92.25
25232;BME280;13176;51.140;6.290;2023-12-07T08:28:05;101278.28;;;5.70;92.44
25232;BME280;13176;51.140;6.290;2023-12-07T08:30:32;101274.84;;;5.71;91.97
25232;BME280;13176;51.140;6.290;2023-12-07T08:32:58;101210.50;;;5.38;91.63
25232;BME280;13176;51.140;6.290;2023-12-07T08:35:25;101179.97;;;5.14;91.53
25232;BME280;13176;51.140;6.290;2023-12-07T08:37:51;101168.78;;;5.17;92.30
25232;BME280;13176;51.140;6.290;2023-12-07T08:40:18;101275.09;;;5.86;91.08
25232;BME280;13176;51.140;6.290;2023-12-07T08:42:46;101245.38;;;5.63;91.36
25232;BME280;13176;51.140;6.290;2023-12-07T08:45:16;101294.19;;;5.94;91.76
25232;BME280;13176;51.140;6.290;2023-12-07T08:47:42;101270.00;;;5.92;91.33
25232;BME280;13176;51.140;6.290;2023-12-07T08:50:09;101233.88;;;5.44;90.19
25232;BME280;13176;51.140;6.290;2023-12-07T08:52:35;101148.78;;;5.04;91.41
25232;BME280;13176;51.140;6.290;2023-12-07T08:55:13;101283.50;;;5.73;90.78
25232;BME280;13176;51.140;6.290;2023-12-07T08:57:42;101264.44;;;5.68;90.95
25232;BME280;13176;51.140;6.290;2023-12-07T09:00:08;101142.59;;;4.96;90.95
25232;BME280;13176;51.140;6.290;2023-12-07T09:02:35;101181.84;;;5.26;90.73
25232;BME280;13176;51.140;6.290;2023-12-07T09:05:12;101285.72;;;6.04;89.76
25232;BME280;13176;51.140;6.290;2023-12-07T09:07:39;101255.13;;;5.78;90.12
25232;BME280;13176;51.140;6.290;2023-12-07T09:10:05;101238.63;;;5.71;90.51
25232;BME280;13176;51.140;6.290;2023-12-07T09:12:33;101210.63;;;5.47;89.56
25232;BME280;13176;51.140;6.290;2023-12-07T09:15:05;101086.25;;;4.74;89.79
25232;BME280;13176;51.140;6.290;2023-12-07T09:17:33;101235.09;;;5.66;90.11
25232;BME280;13176;51.140;6.290;2023-12-07T09:20:00;101174.19;;;5.32;90.20
25232;BME280;13176;51.140;6.290;2023-12-07T09:22:27;101231.66;;;5.67;90.79
25232;BME280;13176;51.140;6.290;2023-12-07T09:25:03;101190.72;;;5.41;90.59
25232;BME280;13176;51.140;6.290;2023-12-07T09:27:30;101270.00;;;5.92;90.72
25232;BME280;13176;51.140;6.290;2023-12-07T09:29:58;101294.38;;;6.06;90.74
25232;BME280;13176;51.140;6.290;2023-12-07T09:32:24;101282.00;;;5.87;90.59
25232;BME280;13176;51.140;6.290;2023-12-07T09:35:01;101298.75;;;6.12;91.49
25232;BME280;13176;51.140;6.290;2023-12-07T09:37:29;101165.69;;;5.39;90.87
25232;BME280;13176;51.140;6.290;2023-12-07T09:39:55;101172.88;;;5.60;90.59
25232;BME280;13176;51.140;6.290;2023-12-07T09:42:29;101316.47;;;6.44;91.21
25232;BME280;13176;51.140;6.290;2023-12-07T09:45:02;101145.81;;;5.36;91.24
25232;BME280;13176;51.140;6.290;2023-12-07T09:47:30;101156.09;;;5.33;91.74
25232;BME280;13176;51.140;6.290;2023-12-07T09:50:04;101155.44;;;5.45;91.21
25232;BME280;13176;51.140;6.290;2023-12-07T09:52:32;101309.56;;;6.43;91.26
25232;BME280;13176;51.140;6.290;2023-12-07T09:54:59;101284.44;;;6.39;91.46
25232;BME280;13176;51.140;6.290;2023-12-07T09:57:25;101167.84;;;5.71;91.13
25232;BME280;13176;51.140;6.290;2023-12-07T09:59:56;101275.78;;;6.37;90.96
25232;BME280;13176;51.140;6.290;2023-12-07T10:02:23;101130.59;;;5.57;91.39
25232;BME280;13176;51.140;6.290;2023-12-07T10:05:09;101267.25;;;6.44;91.32
25232;BME280;13176;51.140;6.290;2023-12-07T10:07:44;101274.41;;;6.66;91.71
25232;BME280;13176;51.140;6.290;2023-12-07T10:10:13;101272.75;;;6.74;91.34
25232;BME280;13176;51.140;6.290;2023-12-07T10:12:54;101229.38;;;6.55;91.47
25232;BME280;13176;51.140;6.290;2023-12-07T10:15:22;101269.31;;;6.75;92.44
25232;BME280;13176;51.140;6.290;2023-12-07T10:17:54;101139.66;;;5.89;92.08
25232;BME280;13176;51.140;6.290;2023-12-07T10:20:28;101243.41;;;6.79;92.21
25232;BME280;13176;51.140;6.290;2023-12-07T10:23:08;101227.03;;;6.82;91.53
25232;BME280;13176;51.140;6.290;2023-12-07T10:25:39;101241.81;;;6.89;91.85
25232;BME280;13176;51.140;6.290;2023-12-07T10:28:07;101246.97;;;6.86;91.41
25232;BME280;13176;51.140;6.290;2023-12-07T10:30:35;101234.81;;;6.82;91.48
25232;BME280;13176;51.140;6.290;2023-12-07T10:33:05;101085.56;;;6.14;90.92
25232;BME280;13176;51.140;6.290;2023-12-07T10:35:44;101219.53;;;7.12;90.82
25232;BME280;13176;51.140;6.290;2023-12-07T10:38:11;100917.38;;;5.42;90.85
25232;BME280;13176;51.140;6.290;2023-12-07T10:40:39;101031.13;;;6.13;91.11
25232;BME280;13176;51.140;6.290;2023-12-07T10:43:08;101226.34;;;7.01;91.45
25232;BME280;13176;51.140;6.290;2023-12-07T10:45:36;101149.34;;;6.97;91.03
25232;BME280;13176;51.140;6.290;2023-12-07T10:48:07;101184.22;;;7.30;91.30
25232;BME280;13176;51.140;6.290;2023-12-07T10:50:36;101169.47;;;7.22;90.28
25232;BME280;13176;51.140;6.290;2023-12-07T10:53:10;101172.97;;;7.33;91.44
25232;BME280;13176;51.140;6.290;2023-12-07T10:55:47;101058.38;;;6.67;91.34
25232;BME280;13176;51.140;6.290;2023-12-07T10:58:16;100957.75;;;6.09;91.16
25232;BME280;13176;51.140;6.290;2023-12-07T11:00:44;101132.91;;;6.95;90.87
25232;BME280;13176;51.140;6.290;2023-12-07T11:03:16;101163.47;;;7.35;91.17
25232;BME280;13176;51.140;6.290;2023-12-07T11:05:45;101174.03;;;7.62;90.64
25232;BME280;13176;51.140;6.290;2023-12-07T11:08:36;100988.94;;;6.27;90.40
25232;BME280;13176;51.140;6.290;2023-12-07T11:11:31;101075.84;;;6.89;90.75
25232;BME280;13176;51.140;6.290;2023-12-07T11:14:03;100971.81;;;6.41;89.88
25232;BME280;13176;51.140;6.290;2023-12-07T11:16:37;101153.31;;;7.69;89.63
25232;BME280;13176;51.140;6.290;2023-12-07T11:19:04;101154.13;;;7.58;90.42
25232;BME280;13176;51.140;6.290;2023-12-07T11:21:38;101143.81;;;7.76;90.27
25232;BME280;13176;51.140;6.290;2023-12-07T11:24:07;101118.72;;;7.76;90.10
25232;BME280;13176;51.140;6.290;2023-12-07T11:26:34;100985.13;;;6.99;88.95
25232;BME280;13176;51.140;6.290;2023-12-07T11:29:01;101029.38;;;7.34;87.37
25232;BME280;13176;51.140;6.290;2023-12-07T11:31:27;101018.78;;;6.92;87.62
25232;BME280;13176;51.140;6.290;2023-12-07T11:33:54;101109.09;;;7.56;87.43
25232;BME280;13176;51.140;6.290;2023-12-07T11:36:21;101084.78;;;7.39;87.18
25232;BME280;13176;51.140;6.290;2023-12-07T11:41:34;101093.31;;;7.21;87.78
25232;BME280;13176;51.140;6.290;2023-12-07T11:44:00;100924.81;;;5.96;89.67
25232;BME280;13176;51.140;6.290;2023-12-07T11:46:27;101113.94;;;6.99;89.65
25232;BME280;13176;51.140;6.290;2023-12-07T11:48:55;100799.84;;;5.13;91.24
25232;BME280;13176;51.140;6.290;2023-12-07T11:51:22;100991.56;;;6.29;89.91
25232;BME280;13176;51.140;6.290;2023-12-07T11:53:49;101084.25;;;6.61;90.89
25232;BME280;13176;51.140;6.290;2023-12-07T11:56:18;100971.59;;;6.14;89.96
25232;BME280;13176;51.140;6.290;2023-12-07T11:58:48;101106.94;;;6.87;90.41
25232;BME280;13176;51.140;6.290;2023-12-07T12:01:16;101120.22;;;7.32;89.59
25232;BME280;13176;51.140;6.290;2023-12-07T12:03:43;100792.47;;;5.57;88.87
25232;BME280;13176;51.140;6.290;2023-12-07T12:06:10;101017.13;;;7.03;87.95
25232;BME280;13176;51.140;6.290;2023-12-07T12:08:40;100911.28;;;6.33;88.39
25232;BME280;13176;51.140;6.290;2023-12-07T12:11:07;101042.19;;;7.01;88.89
25232;BME280;13176;51.140;6.290;2023-12-07T12:13:36;101056.34;;;7.63;87.55
25232;BME280;13176;51.140;6.290;2023-12-07T12:16:03;100995.53;;;7.07;85.95
25232;BME280;13176;51.140;6.290;2023-12-07T12:18:36;100831.84;;;6.35;86.73
25232;BME280;13176;51.140;6.290;2023-12-07T12:21:03;101071.97;;;7.78;86.31
25232;BME280;13176;51.140;6.290;2023-12-07T12:23:30;100973.94;;;7.14;85.10
25232;BME280;13176;51.140;6.290;2023-12-07T12:25:57;100978.25;;;7.09;85.99
25232;BME280;13176;51.140;6.290;2023-12-07T12:28:25;100880.16;;;6.30;85.80
25232;BME280;13176;51.140;6.290;2023-12-07T12:30:52;101048.53;;;7.66;84.98
25232;BME280;13176;51.140;6.290;2023-12-07T12:33:19;100863.13;;;6.74;84.85
25232;BME280;13176;51.140;6.290;2023-12-07T12:35:45;100998.25;;;7.37;86.58
25232;BME280;13176;51.140;6.290;2023-12-07T12:38:12;101006.91;;;7.39;85.84
25232;BME280;13176;51.140;6.290;2023-12-07T12:40:56;100914.09;;;6.72;85.94
25232;BME280;13176;51.140;6.290;2023-12-07T12:43:22;101024.19;;;7.34;86.43
25232;BME280;13176;51.140;6.290;2023-12-07T12:45:49;100889.09;;;6.92;85.04
25232;BME280;13176;51.140;6.290;2023-12-07T12:48:32;100981.88;;;7.56;84.67
25232;BME280;13176;51.140;6.290;2023-12-07T12:51:07;101014.00;;;7.93;83.19
25232;BME280;13176;51.140;6.290;2023-12-07T12:53:33;100811.06;;;6.22;85.46
25232;BME280;13176;51.140;6.290;2023-12-07T12:56:00;100947.13;;;7.16;84.60
25232;BME280;13176;51.140;6.290;2023-12-07T12:58:28;100824.22;;;6.71;83.47
25232;BME280;13176;51.140;6.290;2023-12-07T13:00:56;100978.50;;;7.97;82.56
25232;BME280;13176;51.140;6.290;2023-12-07T13:03:23;100793.16;;;6.87;82.13
25232;BME280;13176;51.140;6.290;2023-12-07T13:05:49;100866.78;;;7.42;81.52
25232;BME280;13176;51.140;6.290;2023-12-07T13:08:16;100768.03;;;6.61;82.99